createdAt,value
2018-09-02T00:01:24.970Z,1.07
2018-09-02T00:03:53.299Z,1.10
2018-09-02T00:06:21.642Z,0.90
2018-09-02T00:08:49.989Z,1.23
2018-09-02T00:11:18.304Z,1.00
2018-09-02T00:13:46.640Z,0.90
2018-09-02T00:16:14.966Z,1.10
2018-09-02T00:18:43.320Z,1.40
2018-09-02T00:21:11.671Z,1.20
2018-09-02T00:23:40.006Z,1.00
2018-09-02T00:26:08.318Z,1.20
2018-09-02T00:28:36.674Z,0.80
2018-09-02T00:31:05.381Z,1.33
2018-09-02T00:33:33.696Z,1.20
2018-09-02T00:36:02.025Z,1.70
2018-09-02T00:38:30.337Z,0.97
2018-09-02T00:40:58.661Z,1.73
2018-09-02T00:43:26.966Z,1.00
2018-09-02T00:45:55.280Z,1.00
2018-09-02T00:48:23.612Z,0.90
2018-09-02T00:50:51.937Z,1.27
2018-09-02T00:53:20.249Z,0.97
2018-09-02T00:55:48.896Z,1.27
2018-09-02T00:58:17.208Z,0.80
2018-09-02T01:00:45.528Z,0.80
2018-09-02T01:03:13.846Z,1.00
2018-09-02T01:05:43.601Z,1.50
2018-09-02T01:08:11.904Z,0.93
2018-09-02T01:10:40.239Z,1.00
2018-09-02T01:13:08.558Z,1.10
2018-09-02T01:15:36.876Z,1.07
2018-09-02T01:18:05.210Z,1.87
2018-09-02T01:20:33.546Z,0.90
2018-09-02T01:23:01.901Z,0.90
2018-09-02T01:25:30.702Z,0.87
2018-09-02T01:27:59.003Z,1.00
2018-09-02T01:30:27.324Z,0.90
2018-09-02T01:32:55.628Z,0.80
2018-09-02T01:35:29.304Z,1.43
2018-09-02T01:37:57.607Z,0.80
2018-09-02T01:40:25.940Z,1.40
2018-09-02T01:42:54.286Z,0.90
2018-09-02T01:45:22.614Z,0.80
2018-09-02T01:47:50.915Z,1.20
2018-09-02T01:50:19.247Z,0.80
2018-09-02T01:52:47.921Z,1.10
2018-09-02T01:55:16.288Z,1.00
2018-09-02T01:57:44.603Z,2.00
2018-09-02T02:00:12.966Z,1.67
2018-09-02T02:02:41.263Z,1.10
2018-09-02T02:05:09.621Z,1.17
2018-09-02T02:07:37.921Z,1.10
2018-09-02T02:10:06.261Z,1.00
2018-09-02T02:12:34.573Z,1.10
2018-09-02T02:15:02.953Z,1.00
2018-09-02T02:17:31.264Z,1.00
2018-09-02T02:19:59.584Z,1.33
2018-09-02T02:22:27.909Z,1.50
2018-09-02T02:24:56.233Z,0.83
2018-09-02T02:27:24.538Z,0.97
2018-09-02T02:29:52.884Z,0.80
2018-09-02T02:32:21.184Z,0.80
2018-09-02T02:34:52.528Z,0.90
2018-09-02T02:37:20.828Z,0.80
2018-09-02T02:39:49.170Z,1.23
2018-09-02T02:42:17.477Z,2.17
2018-09-02T02:44:45.801Z,1.10
2018-09-02T02:47:14.114Z,0.87
2018-09-02T02:49:42.474Z,1.10
2018-09-02T02:52:10.854Z,0.80
2018-09-02T02:54:39.161Z,0.87
2018-09-02T02:57:07.484Z,1.00
2018-09-02T02:59:35.786Z,0.70
2018-09-02T03:02:04.105Z,1.77
2018-09-02T03:04:32.426Z,1.10
2018-09-02T03:07:00.783Z,1.00
2018-09-02T03:09:29.114Z,1.20
2018-09-02T03:11:57.449Z,1.00
2018-09-02T03:14:25.753Z,1.27
2018-09-02T03:16:54.080Z,0.90
2018-09-02T03:19:22.377Z,1.10
2018-09-02T03:21:50.702Z,1.10
2018-09-02T03:24:19.014Z,0.80
2018-09-02T03:26:47.366Z,1.90
2018-09-02T03:29:15.681Z,1.33
2018-09-02T03:31:44.053Z,1.10
2018-09-02T03:34:12.374Z,0.90
2018-09-02T03:36:40.733Z,1.10
2018-09-02T03:39:09.040Z,1.67
2018-09-02T03:41:37.369Z,0.80
2018-09-02T03:44:05.708Z,1.17
2018-09-02T03:46:34.036Z,0.97
2018-09-02T03:49:02.355Z,1.40
2018-09-02T03:51:30.684Z,1.33
2018-09-02T03:53:59.011Z,1.10
2018-09-02T03:56:27.328Z,1.50
2018-09-02T03:58:55.682Z,1.20
2018-09-02T04:01:24.006Z,1.00
2018-09-02T04:03:52.318Z,1.20
2018-09-02T04:06:20.666Z,1.10
2018-09-02T04:08:48.979Z,1.17
2018-09-02T04:11:17.328Z,1.60
2018-09-02T04:13:45.642Z,1.17
2018-09-02T04:16:13.987Z,0.80
2018-09-02T04:18:42.308Z,1.50
2018-09-02T04:21:10.637Z,1.03
2018-09-02T04:23:38.936Z,0.90
2018-09-02T04:26:07.252Z,1.10
2018-09-02T04:28:35.563Z,1.30
2018-09-02T04:31:03.886Z,1.20
2018-09-02T04:33:32.266Z,1.10
2018-09-02T04:36:00.568Z,1.00
2018-09-02T04:38:28.868Z,1.30
2018-09-02T04:40:57.190Z,1.10
2018-09-02T04:43:25.485Z,1.00
2018-09-02T04:45:53.814Z,1.00
2018-09-02T04:48:22.123Z,0.80
2018-09-02T04:50:50.450Z,1.07
2018-09-02T04:53:18.776Z,1.07
2018-09-02T04:55:47.108Z,1.60
2018-09-02T04:58:15.415Z,1.20
2018-09-02T05:00:43.831Z,1.10
2018-09-02T05:03:12.109Z,0.90
2018-09-02T05:05:40.455Z,1.70
2018-09-02T05:08:08.777Z,1.03
2018-09-02T05:10:37.086Z,1.20
2018-09-02T05:13:05.421Z,1.20
2018-09-02T05:15:33.728Z,1.50
2018-09-02T05:18:02.064Z,1.40
2018-09-02T05:20:30.370Z,0.83
2018-09-02T05:22:58.696Z,1.20
2018-09-02T05:25:26.997Z,1.10
2018-09-02T05:27:55.318Z,1.10
2018-09-02T05:30:23.625Z,1.40
2018-09-02T05:32:51.952Z,1.50
2018-09-02T05:35:20.253Z,1.20
2018-09-02T05:37:48.622Z,1.10
2018-09-02T05:40:16.927Z,1.73
2018-09-02T05:42:45.260Z,1.40
2018-09-02T05:45:13.574Z,1.10
2018-09-02T05:47:41.896Z,1.33
2018-09-02T05:50:10.201Z,1.53
2018-09-02T05:52:38.532Z,1.33
2018-09-02T05:55:07.140Z,1.40
2018-09-02T05:57:35.558Z,1.40
2018-09-02T06:00:04.252Z,1.93
2018-09-02T06:02:32.573Z,1.30
2018-09-02T06:05:00.957Z,1.40
2018-09-02T06:07:29.302Z,1.30
2018-09-02T06:09:57.729Z,1.83
2018-09-02T06:12:26.044Z,3.33
2018-09-02T06:14:54.346Z,1.33
2018-09-02T06:17:22.695Z,1.40
2018-09-02T06:19:51.022Z,1.70
2018-09-02T06:22:19.349Z,1.70
2018-09-02T06:24:47.661Z,1.90
2018-09-02T06:27:15.990Z,2.40
2018-09-02T06:29:44.332Z,2.40
2018-09-02T06:32:12.667Z,1.70
2018-09-02T06:34:40.984Z,1.67
2018-09-02T06:37:09.314Z,2.33
2018-09-02T06:39:37.717Z,2.20
2018-09-02T06:42:06.010Z,2.30
2018-09-02T06:44:34.330Z,2.40
2018-09-02T06:47:02.669Z,3.00
2018-09-02T06:49:31.000Z,2.20
2018-09-02T06:51:59.336Z,3.33
2018-09-02T06:54:27.657Z,3.57
2018-09-02T06:56:56.087Z,2.33
2018-09-02T06:59:24.477Z,2.40
2018-09-02T07:01:52.817Z,2.67
2018-09-02T07:04:21.140Z,2.97
2018-09-02T07:06:49.507Z,3.00
2018-09-02T07:09:17.804Z,2.03
2018-09-02T07:11:46.144Z,2.23
2018-09-02T07:14:14.472Z,1.87
2018-09-02T07:23:41.802Z,4.23
2018-09-02T07:26:10.120Z,4.10
2018-09-02T07:28:38.455Z,6.30
2018-09-02T07:31:06.791Z,3.87
2018-09-02T07:33:35.129Z,4.00
2018-09-02T07:36:03.434Z,4.47
2018-09-02T07:38:31.769Z,3.83
2018-09-02T07:41:00.078Z,3.30
2018-09-02T07:43:28.408Z,3.27
2018-09-02T07:45:56.734Z,3.73
2018-09-02T07:48:25.075Z,3.30
2018-09-02T07:50:53.394Z,3.90
2018-09-02T07:53:21.704Z,3.53
2018-09-02T07:55:50.030Z,3.83
2018-09-02T07:58:18.372Z,3.63
2018-09-02T08:03:21.369Z,5.60
2018-09-02T08:05:49.692Z,4.53
2018-09-02T08:08:18.038Z,5.83
2018-09-02T08:10:46.354Z,4.50
2018-09-02T08:13:14.848Z,3.30
2018-09-02T08:15:43.185Z,3.43
2018-09-02T08:18:11.522Z,3.00
2018-09-02T08:20:39.849Z,3.43
2018-09-02T08:23:08.191Z,4.00
2018-09-02T08:25:36.516Z,3.33
2018-09-02T08:28:04.887Z,3.10
2018-09-02T08:30:33.287Z,3.17
2018-09-02T08:33:01.653Z,3.53
2018-09-02T08:35:29.954Z,3.57
2018-09-02T08:37:58.290Z,3.50
2018-09-02T08:40:26.594Z,3.63
2018-09-02T08:42:55.048Z,4.23
2018-09-02T08:45:23.363Z,2.67
2018-09-02T08:47:51.702Z,2.90
2018-09-02T08:50:20.017Z,3.30
2018-09-02T08:52:48.373Z,3.87
2018-09-02T08:55:16.704Z,4.07
2018-09-02T08:57:45.032Z,2.50
2018-09-02T09:00:15.029Z,4.33
2018-09-02T09:02:43.371Z,2.87
2018-09-02T09:05:11.696Z,3.70
2018-09-02T09:07:40.212Z,2.80
2018-09-02T09:10:08.393Z,3.13
2018-09-02T09:12:37.116Z,3.13
2018-09-02T09:15:05.641Z,2.13
2018-09-02T09:17:33.965Z,4.57
2018-09-02T09:20:02.293Z,4.90
2018-09-02T09:22:30.652Z,3.10
2018-09-02T09:24:59.108Z,3.10
2018-09-02T09:27:27.402Z,4.60
2018-09-02T09:29:55.723Z,2.87
2018-09-02T09:32:24.073Z,3.10
2018-09-02T09:34:52.427Z,2.80
2018-09-02T09:37:20.730Z,3.30
2018-09-02T09:39:49.057Z,4.77
2018-09-02T09:42:17.393Z,3.40
2018-09-02T09:44:45.712Z,5.27
2018-09-02T09:47:14.025Z,3.33
2018-09-02T09:49:42.372Z,3.30
2018-09-02T09:52:10.698Z,2.90
2018-09-02T09:54:39.020Z,2.90
2018-09-02T09:57:07.384Z,2.87
2018-09-02T09:59:35.722Z,3.40
2018-09-02T10:02:04.020Z,2.50
2018-09-02T10:04:32.346Z,3.63
2018-09-02T10:07:00.665Z,2.87
2018-09-02T10:09:29.010Z,2.33
2018-09-02T10:11:57.329Z,6.40
2018-09-02T10:14:25.660Z,3.67
2018-09-02T10:16:53.964Z,2.50
2018-09-02T10:19:22.295Z,3.60
2018-09-02T10:21:50.611Z,2.10
2018-09-02T10:24:18.947Z,3.50
2018-09-02T10:26:47.252Z,2.43
2018-09-02T10:29:15.590Z,2.37
2018-09-02T10:31:43.926Z,2.00
2018-09-02T10:34:12.270Z,1.63
2018-09-02T10:36:40.579Z,1.83
2018-09-02T10:46:08.424Z,2.43
2018-09-02T10:48:36.790Z,2.10
2018-09-02T10:51:05.203Z,2.67
2018-09-02T10:53:33.542Z,2.77
2018-09-02T10:56:01.859Z,2.20
2018-09-02T10:58:30.238Z,2.53
2018-09-02T11:00:58.600Z,1.73
2018-09-02T11:03:26.905Z,2.00
2018-09-02T11:05:55.249Z,2.27
2018-09-02T11:08:23.553Z,2.67
2018-09-02T11:10:51.908Z,2.00
2018-09-02T11:13:20.240Z,2.30
2018-09-02T11:15:48.623Z,1.87
2018-09-02T11:18:16.971Z,1.93
2018-09-02T11:20:45.315Z,1.70
2018-09-02T11:23:13.634Z,1.90
2018-09-02T11:25:41.996Z,2.17
2018-09-02T11:28:10.308Z,1.80
2018-09-02T11:30:38.877Z,2.60
2018-09-02T11:33:07.189Z,2.17
2018-09-02T11:35:35.565Z,1.50
2018-09-02T11:38:04.016Z,1.20
2018-09-02T11:40:32.360Z,1.47
2018-09-02T11:43:00.701Z,1.30
2018-09-02T11:45:29.737Z,1.47
2018-09-02T11:47:58.165Z,1.23
2018-09-02T11:50:26.514Z,1.10
2018-09-02T11:52:54.817Z,1.50
2018-09-02T11:55:23.146Z,1.20
2018-09-02T11:57:51.535Z,1.83
2018-09-02T12:00:19.846Z,1.10
2018-09-02T12:02:48.165Z,1.20
2018-09-02T12:05:16.559Z,1.13
2018-09-02T12:07:44.878Z,1.17
2018-09-02T12:10:13.233Z,1.00
2018-09-02T12:12:41.558Z,1.23
2018-09-02T12:15:09.889Z,1.20
2018-09-02T12:17:38.223Z,1.20
2018-09-02T12:20:06.565Z,1.10
2018-09-02T12:22:34.880Z,1.10
2018-09-02T12:25:03.208Z,1.30
2018-09-02T12:27:31.510Z,1.10
2018-09-02T12:29:59.825Z,0.77
2018-09-02T12:32:28.124Z,1.10
2018-09-02T12:34:56.452Z,1.50
2018-09-02T12:37:24.762Z,1.00
2018-09-02T12:39:53.350Z,1.20
2018-09-02T12:42:21.720Z,1.00
2018-09-02T12:44:50.028Z,1.30
2018-09-02T12:47:18.354Z,1.30
2018-09-02T12:49:46.846Z,1.00
2018-09-02T12:52:15.245Z,1.30
2018-09-02T12:54:43.618Z,1.20
2018-09-02T12:57:11.961Z,1.10
2018-09-02T12:59:40.297Z,1.63
2018-09-02T13:02:08.620Z,1.17
2018-09-02T13:04:36.985Z,1.13
2018-09-02T13:07:05.533Z,1.23
2018-09-02T13:09:34.033Z,1.20
2018-09-02T13:12:02.338Z,1.43
2018-09-02T13:14:30.810Z,1.70
2018-09-02T13:16:59.165Z,1.30
2018-09-02T13:19:27.498Z,1.40
2018-09-02T13:21:55.890Z,1.30
2018-09-02T13:24:24.287Z,1.30
2018-09-02T13:26:52.662Z,1.50
2018-09-02T13:29:20.977Z,1.23
2018-09-02T13:31:49.354Z,1.67
2018-09-02T13:34:17.692Z,1.20
2018-09-02T13:36:46.045Z,1.30
2018-09-02T13:39:14.384Z,1.10
2018-09-02T13:41:42.724Z,0.97
2018-09-02T13:44:11.037Z,1.20
2018-09-02T13:46:39.379Z,0.90
2018-09-02T13:49:07.701Z,0.93
2018-09-02T13:51:36.116Z,0.80
2018-09-02T13:54:04.404Z,0.90
2018-09-02T13:56:32.752Z,1.87
2018-09-02T13:59:01.097Z,0.90
2018-09-02T14:01:29.422Z,0.80
2018-09-02T14:03:57.757Z,1.20
2018-09-02T14:06:26.115Z,1.47
2018-09-02T14:08:54.443Z,1.70
2018-09-02T14:11:22.761Z,1.40
2018-09-02T14:13:51.089Z,1.60
2018-09-02T14:16:19.501Z,1.20
2018-09-02T14:18:47.813Z,1.60
2018-09-02T14:21:16.196Z,1.40
2018-09-02T14:23:44.662Z,3.17
2018-09-02T14:26:12.980Z,1.30
2018-09-02T14:28:41.281Z,1.40
2018-09-02T14:31:09.634Z,1.10
2018-09-02T14:33:37.978Z,1.43
2018-09-02T14:36:06.610Z,1.33
2018-09-02T14:38:34.934Z,1.40
2018-09-02T14:41:03.291Z,1.50
2018-09-02T14:43:31.613Z,1.30
2018-09-02T14:45:59.943Z,1.30
2018-09-02T14:48:28.252Z,1.30
2018-09-02T14:50:56.703Z,1.23
2018-09-02T14:53:25.048Z,1.10
2018-09-02T14:55:53.364Z,1.13
2018-09-02T14:58:21.677Z,1.03
2018-09-02T15:00:50.024Z,1.30
2018-09-02T15:03:18.380Z,1.20
2018-09-02T15:05:46.801Z,1.40
2018-09-02T15:08:15.135Z,1.13
2018-09-02T15:10:43.481Z,1.00
2018-09-02T15:13:11.800Z,1.20
2018-09-02T15:15:40.140Z,1.07
2018-09-02T15:18:08.449Z,1.43
2018-09-02T15:20:36.782Z,1.10
2018-09-02T15:23:05.085Z,1.10
2018-09-02T15:25:33.384Z,0.83
2018-09-02T15:28:01.721Z,1.20
2018-09-02T15:30:30.045Z,1.20
2018-09-02T15:32:58.365Z,1.07
2018-09-02T15:35:26.673Z,1.10
2018-09-02T15:37:55.029Z,1.80
2018-09-02T15:40:23.350Z,1.50
2018-09-02T15:42:51.801Z,1.30
2018-09-02T15:45:20.119Z,1.60
2018-09-02T15:47:48.463Z,1.40
2018-09-02T15:50:16.782Z,1.53
2018-09-02T15:52:45.125Z,1.67
2018-09-02T15:55:13.473Z,0.93
2018-09-02T15:57:41.811Z,1.10
2018-09-02T16:00:10.170Z,0.90
2018-09-02T16:02:38.653Z,1.20
2018-09-02T16:05:06.980Z,1.27
2018-09-02T16:07:35.316Z,1.30
2018-09-02T16:10:03.924Z,1.30
2018-09-02T16:12:32.441Z,1.20
2018-09-02T16:15:00.748Z,1.30
2018-09-02T16:17:29.530Z,0.90
2018-09-02T16:19:57.884Z,0.80
2018-09-02T16:22:26.645Z,1.30
2018-09-02T16:24:55.441Z,1.03
2018-09-02T16:27:23.811Z,1.00
2018-09-02T16:29:52.297Z,0.80
2018-09-02T16:32:20.632Z,1.03
2018-09-02T16:34:48.958Z,0.80
2018-09-02T16:37:17.301Z,0.80
2018-09-02T16:39:45.719Z,0.80
2018-09-02T16:42:14.178Z,0.80
2018-09-02T16:44:42.500Z,0.70
2018-09-02T16:47:10.873Z,0.80
2018-09-02T16:49:39.185Z,0.80
2018-09-02T16:52:07.509Z,1.00
2018-09-02T16:54:35.876Z,0.87
2018-09-02T16:57:04.588Z,0.70
2018-09-02T16:59:39.493Z,0.73
2018-09-02T17:02:07.929Z,0.80
2018-09-02T17:04:38.003Z,0.70
2018-09-02T17:07:06.349Z,0.80
2018-09-02T17:09:34.645Z,0.70
2018-09-02T17:12:03.133Z,0.70
2018-09-02T17:14:31.369Z,0.80
2018-09-02T17:16:59.702Z,0.63
2018-09-02T17:19:31.428Z,0.73
2018-09-02T17:21:59.798Z,0.80
2018-09-02T17:24:28.150Z,0.67
2018-09-02T17:26:56.489Z,0.80
2018-09-02T17:29:24.811Z,0.70
2018-09-02T17:31:53.149Z,0.77
2018-09-02T17:34:21.459Z,0.70
2018-09-02T17:36:49.812Z,0.67
2018-09-02T17:39:18.128Z,0.60
2018-09-02T17:41:46.475Z,0.80
2018-09-02T17:44:14.996Z,0.90
2018-09-02T17:46:43.334Z,0.70
2018-09-02T17:49:11.637Z,0.50
2018-09-02T17:51:39.956Z,0.70
2018-09-02T17:54:08.305Z,0.80
2018-09-02T17:56:36.605Z,0.80
2018-09-02T17:59:04.937Z,0.80
2018-09-02T18:01:33.264Z,0.83
2018-09-02T18:04:01.616Z,0.80
2018-09-02T18:06:36.634Z,0.87
2018-09-02T18:09:07.646Z,0.80
2018-09-02T18:11:35.986Z,0.70
2018-09-02T18:14:04.321Z,0.70
2018-09-02T18:16:32.659Z,0.90
2018-09-02T18:19:01.015Z,0.80
2018-09-02T18:21:29.389Z,0.80
2018-09-02T18:23:57.830Z,0.80
2018-09-02T18:26:26.181Z,0.70
2018-09-02T18:28:54.528Z,0.60
2018-09-02T18:31:23.111Z,0.70
2018-09-02T18:33:51.425Z,0.80
2018-09-02T18:36:19.755Z,0.77
2018-09-02T18:38:48.115Z,0.70
2018-09-02T18:41:16.475Z,0.70
2018-09-02T18:43:44.896Z,0.70
2018-09-02T18:46:13.869Z,0.80
2018-09-02T18:48:42.184Z,0.70
2018-09-02T18:51:10.489Z,0.70
2018-09-02T18:53:38.968Z,0.90
2018-09-02T18:56:07.310Z,0.70
2018-09-02T18:58:35.650Z,0.83
2018-09-02T19:01:03.960Z,0.80
2018-09-02T19:03:32.298Z,1.00
2018-09-02T19:06:00.644Z,0.80
2018-09-02T19:08:28.975Z,0.70
2018-09-02T19:10:57.289Z,0.70
2018-09-02T19:13:25.635Z,0.70
2018-09-02T19:15:53.948Z,0.83
2018-09-02T19:18:22.290Z,0.80
2018-09-02T19:20:50.602Z,0.80
2018-09-02T19:23:18.953Z,1.07
2018-09-02T19:25:53.705Z,0.80
2018-09-02T19:28:22.047Z,0.73
2018-09-02T19:30:50.356Z,1.00
2018-09-02T19:33:18.688Z,0.80
2018-09-02T19:35:47.026Z,1.10
2018-09-02T19:41:14.635Z,0.80
2018-09-02T19:43:42.993Z,0.80
2018-09-02T19:46:11.317Z,0.80
2018-09-02T19:48:39.642Z,0.80
2018-09-02T19:51:08.101Z,0.90
2018-09-02T19:53:37.026Z,0.90
2018-09-02T19:56:05.331Z,0.83
2018-09-02T19:58:33.658Z,0.80
2018-09-02T20:01:01.986Z,0.90
2018-09-02T20:03:30.296Z,0.80
2018-09-02T20:05:58.649Z,1.10
2018-09-02T20:08:26.970Z,1.20
2018-09-02T20:10:55.396Z,0.70
2018-09-02T20:13:23.712Z,0.80
2018-09-02T20:15:52.040Z,0.87
2018-09-02T20:18:20.345Z,1.00
2018-09-02T20:20:48.743Z,1.10
2018-09-02T20:23:17.077Z,1.07
2018-09-02T20:25:45.392Z,0.93
2018-09-02T20:28:13.843Z,0.80
2018-09-02T20:30:42.188Z,1.13
2018-09-02T20:33:10.523Z,0.83
2018-09-02T20:35:38.897Z,0.80
2018-09-02T20:38:07.241Z,0.90
2018-09-02T20:40:35.573Z,1.00
2018-09-02T20:43:03.881Z,1.20
2018-09-02T20:45:32.219Z,1.10
2018-09-02T20:48:00.538Z,1.20
2018-09-02T20:50:28.897Z,1.23
2018-09-02T20:52:57.237Z,1.10
2018-09-02T20:55:25.579Z,1.43
2018-09-02T20:57:53.903Z,1.00
2018-09-02T21:00:22.226Z,1.20
2018-09-02T21:02:50.652Z,1.20
2018-09-02T21:05:18.950Z,1.10
2018-09-02T21:07:47.285Z,0.90
2018-09-02T21:10:15.639Z,1.30
2018-09-02T21:12:44.017Z,1.10
2018-09-02T21:15:12.359Z,1.03
2018-09-02T21:17:40.662Z,0.97
2018-09-02T21:20:09.002Z,1.00
2018-09-02T21:22:37.324Z,1.10
2018-09-02T21:25:06.021Z,1.00
2018-09-02T21:27:34.333Z,0.90
2018-09-02T21:30:02.687Z,1.03
2018-09-02T21:32:31.008Z,1.07
2018-09-02T21:34:59.341Z,0.80
2018-09-02T21:37:27.644Z,1.00
2018-09-02T21:39:55.979Z,0.80
2018-09-02T21:42:24.302Z,0.87
2018-09-02T21:44:52.633Z,1.00
2018-09-02T21:47:20.946Z,0.90
2018-09-02T21:49:49.288Z,0.93
2018-09-02T21:52:17.596Z,1.30
2018-09-02T21:54:45.924Z,1.10
2018-09-02T21:57:14.324Z,0.90
2018-09-02T21:59:42.705Z,0.87
2018-09-02T22:02:11.041Z,1.40
2018-09-02T22:04:39.356Z,1.17
2018-09-02T22:07:07.732Z,1.10
2018-09-02T22:09:36.040Z,1.30
2018-09-02T22:12:04.372Z,1.30
2018-09-02T22:14:32.686Z,1.30
2018-09-02T22:17:01.095Z,1.13
2018-09-02T22:19:29.419Z,1.20
2018-09-02T22:21:57.765Z,1.60
2018-09-02T22:24:26.085Z,1.20
2018-09-02T22:26:54.429Z,1.57
2018-09-02T22:29:22.746Z,1.67
2018-09-02T22:31:51.093Z,1.20
2018-09-02T22:34:19.411Z,1.50
2018-09-02T22:36:47.741Z,1.47
2018-09-02T22:39:16.078Z,1.33
2018-09-02T22:41:44.470Z,1.40
2018-09-02T22:44:12.805Z,1.27
2018-09-02T22:46:41.155Z,1.60
2018-09-02T22:49:09.456Z,1.17
2018-09-02T22:51:37.776Z,1.20
2018-09-02T22:54:06.115Z,1.60
2018-09-02T22:56:34.453Z,1.40
2018-09-02T22:59:02.774Z,1.40
2018-09-02T23:01:31.096Z,1.83
2018-09-02T23:03:59.399Z,2.40
2018-09-02T23:06:27.755Z,1.60
2018-09-02T23:08:56.068Z,2.07
2018-09-02T23:11:24.395Z,2.30
2018-09-02T23:13:52.704Z,2.13
2018-09-02T23:16:21.042Z,1.70
2018-09-02T23:18:49.358Z,1.40
2018-09-02T23:21:17.705Z,2.07
2018-09-02T23:23:46.012Z,1.70
2018-09-02T23:26:14.344Z,1.83
2018-09-02T23:28:42.672Z,1.83
2018-09-02T23:31:11.003Z,1.87
2018-09-02T23:33:39.320Z,1.47
2018-09-02T23:36:07.646Z,1.70
2018-09-02T23:38:35.976Z,2.07
2018-09-02T23:41:04.485Z,1.67
2018-09-02T23:43:32.785Z,1.60
2018-09-02T23:46:01.108Z,1.70
2018-09-02T23:48:29.445Z,1.77
2018-09-02T23:50:57.773Z,2.30
2018-09-02T23:53:26.102Z,1.90
2018-09-02T23:55:54.428Z,1.80
2018-09-02T23:58:22.737Z,1.93
